Time;durP1;ratioP1;P1;durP2;ratioP2;P2;SDS_P1;SDS_P2;PMS_P1;PMS_P2;Temp;Humidity;BMP_temperature;BMP_pressure;BME280_temperature;BME280_humidity;BME280_pressure;Samples;Min_cycle;Max_cycle;Signal;HPM_P1;HPM_P2
2021/06/17 00:00:21;;;;;;;5.03;4.30;;;24.80;81.80;;;;;;5107106;28;20031;-34
2021/06/17 00:02:48;;;;;;;4.93;4.50;;;24.80;82.00;;;;;;5086343;28;20012;-40
2021/06/17 00:05:16;;;;;;;5.10;4.60;;;24.80;82.00;;;;;;5102117;28;20292;-40
2021/06/17 00:07:42;;;;;;;5.53;4.53;;;24.80;82.00;;;;;;5106693;28;20461;-38
2021/06/17 00:10:16;;;;;;;6.45;5.10;;;24.80;82.20;;;;;;5106557;28;20475;-39
2021/06/17 00:12:42;;;;;;;5.30;4.72;;;24.80;82.30;;;;;;5107101;28;20074;-40
2021/06/17 00:15:10;;;;;;;6.53;4.82;;;24.70;82.40;;;;;;5106572;28;20077;-38
2021/06/17 00:17:35;;;;;;;8.13;5.28;;;24.70;82.50;;;;;;5106888;28;20095;-40
2021/06/17 00:20:02;;;;;;;5.78;5.28;;;24.70;82.50;;;;;;5106231;28;20209;-39
2021/06/17 00:22:33;;;;;;;7.82;5.40;;;24.70;82.60;;;;;;5107074;28;20066;-36
2021/06/17 00:25:04;;;;;;;7.63;5.50;;;24.70;82.60;;;;;;5106654;28;20412;-40
2021/06/17 00:27:29;;;;;;;6.50;5.38;;;24.70;82.60;;;;;;5107071;28;20037;-39
2021/06/17 00:29:55;;;;;;;7.38;5.63;;;24.70;82.60;;;;;;5106129;28;20103;-39
2021/06/17 00:32:21;;;;;;;5.68;5.18;;;24.70;82.60;;;;;;5106174;28;20019;-40
2021/06/17 00:34:58;;;;;;;5.70;5.20;;;24.70;82.60;;;;;;5106890;28;20555;-39
2021/06/17 00:37:24;;;;;;;6.55;5.47;;;24.70;82.80;;;;;;5106276;28;20467;-39
2021/06/17 00:39:52;;;;;;;6.82;5.03;;;24.70;82.90;;;;;;5106897;28;20034;-39
2021/06/17 00:42:18;;;;;;;8.80;5.07;;;24.60;82.90;;;;;;5110544;28;20022;-40
2021/06/17 00:44:43;;;;;;;5.60;5.03;;;24.60;83.10;;;;;;5110170;28;20335;-39
2021/06/17 00:47:09;;;;;;;6.38;5.75;;;24.60;83.30;;;;;;5110073;28;20425;-39
2021/06/17 00:49:38;;;;;;;6.35;5.30;;;24.50;83.40;;;;;;5110898;28;20027;-38
2021/06/17 00:52:06;;;;;;;5.55;5.05;;;24.50;83.60;;;;;;5109610;28;20016;-39
2021/06/17 00:54:33;;;;;;;7.25;5.47;;;24.40;83.70;;;;;;5110693;28;20245;-39
2021/06/17 00:57:08;;;;;;;5.82;5.28;;;24.40;83.90;;;;;;5109659;28;20051;-43
2021/06/17 00:59:37;;;;;;;6.22;5.65;;;24.40;84.10;;;;;;5090129;28;20028;-38
2021/06/17 01:02:03;;;;;;;7.22;5.93;;;24.30;84.20;;;;;;5103938;28;20031;-38
2021/06/17 01:04:30;;;;;;;5.93;5.30;;;24.30;84.20;;;;;;5110185;28;20111;-38
2021/06/17 01:06:58;;;;;;;6.45;5.72;;;24.30;84.30;;;;;;5109348;28;20068;-39
2021/06/17 01:09:45;;;;;;;8.07;5.82;;;24.30;84.50;;;;;;5109903;28;20053;-39
2021/06/17 01:12:48;;;;;;;6.15;5.55;;;24.20;84.60;;;;;;5109887;28;20172;-39
2021/06/17 01:15:19;;;;;;;6.60;5.68;;;24.20;84.80;;;;;;5089900;28;20076;-39
2021/06/17 01:18:08;;;;;;;6.78;5.85;;;24.20;84.70;;;;;;5105411;28;20114;-38
2021/06/17 01:20:56;;;;;;;5.72;5.22;;;24.20;84.90;;;;;;5089113;28;20058;-40
2021/06/17 01:23:50;;;;;;;6.10;5.45;;;24.20;84.80;;;;;;5109829;28;20026;-40
2021/06/17 01:26:31;;;;;;;5.93;5.38;;;24.20;84.90;;;;;;5109661;28;20023;-39
2021/06/17 01:28:59;;;;;;;5.77;5.13;;;24.10;84.90;;;;;;5105936;28;20052;-45
2021/06/17 01:31:27;;;;;;;5.47;4.97;;;24.10;84.90;;;;;;5109496;28;20487;-46
2021/06/17 01:33:55;;;;;;;6.90;5.45;;;24.10;85.00;;;;;;5108598;28;20043;-39
2021/06/17 01:36:30;;;;;;;5.97;5.32;;;24.10;85.00;;;;;;5109533;28;20200;-39
2021/06/17 01:39:01;;;;;;;5.70;5.13;;;24.10;85.10;;;;;;5108440;28;20387;-39
2021/06/17 01:41:32;;;;;;;7.68;5.78;;;24.10;85.20;;;;;;5109575;28;20035;-38
2021/06/17 01:43:59;;;;;;;6.28;5.70;;;24.10;85.30;;;;;;5108436;28;20023;-39
2021/06/17 01:46:26;;;;;;;7.65;5.30;;;24.10;85.30;;;;;;5108967;28;20516;-39
2021/06/17 01:48:53;;;;;;;6.35;4.78;;;24.10;85.30;;;;;;5108387;28;20027;-39
2021/06/17 01:51:21;;;;;;;6.07;5.38;;;24.10;85.50;;;;;;5109478;28;20016;-41
2021/06/17 01:53:48;;;;;;;5.72;5.22;;;24.00;85.70;;;;;;5108948;28;20126;-39
2021/06/17 01:56:15;;;;;;;7.30;5.68;;;24.00;85.90;;;;;;5108172;28;20023;-39
2021/06/17 01:58:42;;;;;;;6.00;5.35;;;23.90;86.00;;;;;;5108434;27;20110;-37
2021/06/17 02:01:08;;;;;;;6.47;5.47;;;23.90;86.30;;;;;;5109082;28;20031;-40
2021/06/17 02:03:34;;;;;;;6.65;5.65;;;23.80;86.40;;;;;;5108214;28;20034;-38
2021/06/17 02:06:01;;;;;;;6.45;5.85;;;23.80;86.70;;;;;;5108391;28;20016;-39
2021/06/17 02:08:27;;;;;;;6.90;6.30;;;23.80;86.90;;;;;;5108286;28;20023;-36
2021/06/17 02:10:58;;;;;;;6.82;6.13;;;23.70;87.00;;;;;;5107592;28;20101;-39
2021/06/17 02:13:24;;;;;;;6.72;6.03;;;23.70;87.00;;;;;;5109224;28;20028;-39
2021/06/17 02:15:51;;;;;;;6.78;5.80;;;23.70;87.00;;;;;;5108329;28;20075;-39
2021/06/17 02:18:24;;;;;;;8.35;6.05;;;23.70;87.10;;;;;;5108382;28;20042;-39
2021/06/17 02:20:50;;;;;;;7.07;6.38;;;23.70;87.40;;;;;;5108827;28;20015;-38
2021/06/17 02:23:18;;;;;;;8.23;7.05;;;23.70;87.50;;;;;;5107683;28;20081;-39
2021/06/17 02:25:47;;;;;;;9.23;7.40;;;23.70;87.60;;;;;;5104768;28;20026;-39
2021/06/17 02:28:18;;;;;;;7.70;6.90;;;23.70;87.70;;;;;;5108216;28;20067;-39
2021/06/17 02:30:45;;;;;;;7.35;6.65;;;23.70;87.80;;;;;;5106615;28;20435;-43
2021/06/17 02:33:13;;;;;;;12.70;7.43;;;23.70;87.80;;;;;;5107944;28;20119;-37
2021/06/17 02:35:43;;;;;;;7.75;7.05;;;23.70;87.90;;;;;;5107712;28;20045;-39
2021/06/17 02:38:10;;;;;;;9.00;8.10;;;23.70;88.00;;;;;;5107729;28;20023;-40
2021/06/17 02:40:42;;;;;;;10.25;7.95;;;23.70;88.20;;;;;;5108189;28;20446;-41
2021/06/17 02:43:12;;;;;;;9.57;7.93;;;23.70;88.30;;;;;;5087821;28;20016;-44
2021/06/17 02:45:39;;;;;;;9.27;8.32;;;23.70;88.50;;;;;;5103174;28;20031;-39
2021/06/17 02:48:06;;;;;;;10.25;9.18;;;23.60;88.50;;;;;;5107806;28;20078;-38
2021/06/17 02:50:32;;;;;;;10.15;9.20;;;23.60;88.80;;;;;;5107719;28;20019;-44
2021/06/17 02:52:58;;;;;;;10.77;9.02;;;23.60;88.90;;;;;;5106786;28;20042;-38
2021/06/17 02:55:24;;;;;;;10.63;9.63;;;23.60;89.00;;;;;;5107966;28;20011;-39
2021/06/17 02:58:07;;;;;;;11.13;9.90;;;23.60;89.20;;;;;;5107622;28;20038;-39
2021/06/17 03:00:37;;;;;;;10.65;8.52;;;23.60;89.40;;;;;;5107328;28;20154;-38
2021/06/17 03:03:28;;;;;;;10.13;9.13;;;23.60;89.30;;;;;;5106570;28;20031;-40
2021/06/17 03:06:11;;;;;;;10.43;9.50;;;23.60;89.50;;;;;;5099413;28;20508;-39
2021/06/17 03:08:43;;;;;;;11.23;9.52;;;23.60;89.50;;;;;;5107434;28;20150;-39
2021/06/17 03:11:13;;;;;;;11.27;10.10;;;23.60;89.50;;;;;;5106955;28;20289;-39
2021/06/17 03:13:42;;;;;;;10.82;9.73;;;23.70;89.60;;;;;;5106447;28;20134;-41
2021/06/17 03:16:17;;;;;;;10.60;9.30;;;23.70;89.70;;;;;;5107351;28;20084;-40
2021/06/17 03:18:43;;;;;;;12.57;9.60;;;23.70;89.70;;;;;;5107579;28;20118;-39
2021/06/17 03:21:09;;;;;;;11.35;9.60;;;23.70;89.80;;;;;;5106928;27;20043;-41
2021/06/17 03:23:39;;;;;;;10.80;9.60;;;23.70;89.80;;;;;;5107181;28;20062;-42
2021/06/17 03:26:08;;;;;;;11.70;9.45;;;23.80;89.90;;;;;;5107207;28;20020;-42
2021/06/17 03:28:35;;;;;;;10.85;9.77;;;23.80;89.90;;;;;;5107018;28;20480;-40
2021/06/17 03:31:02;;;;;;;10.48;9.48;;;23.80;89.90;;;;;;5106667;28;20019;-41
2021/06/17 03:33:33;;;;;;;10.40;9.45;;;23.80;89.90;;;;;;5107030;28;20046;-39
2021/06/17 03:36:00;;;;;;;10.07;9.07;;;23.90;90.00;;;;;;5106498;28;20412;-39
2021/06/17 03:38:29;;;;;;;10.40;9.38;;;23.80;89.90;;;;;;5106415;28;20081;-40
2021/06/17 03:40:56;;;;;;;10.85;9.75;;;23.90;90.00;;;;;;5106271;28;20103;-40
2021/06/17 03:43:23;;;;;;;11.13;9.48;;;23.80;90.00;;;;;;5107343;28;20020;-39
2021/06/17 03:45:50;;;;;;;10.95;9.95;;;23.80;90.10;;;;;;5107446;28;20027;-38
2021/06/17 03:48:17;;;;;;;10.35;9.35;;;23.80;90.20;;;;;;5105750;28;20015;-38
2021/06/17 03:50:45;;;;;;;12.52;11.32;;;23.80;90.30;;;;;;5107363;28;20051;-41
2021/06/17 03:53:14;;;;;;;11.57;10.38;;;23.80;90.40;;;;;;5106530;28;20042;-40
2021/06/17 03:55:42;;;;;;;12.38;11.13;;;23.70;90.40;;;;;;5106570;28;20027;-45
2021/06/17 03:58:08;;;;;;;11.77;10.52;;;23.70;90.50;;;;;;5107198;28;20023;-49
2021/06/17 04:00:35;;;;;;;11.48;10.43;;;23.70;90.50;;;;;;5106757;28;20020;-39
2021/06/17 04:03:05;;;;;;;11.02;9.93;;;23.60;90.60;;;;;;5105830;28;20030;-39
2021/06/17 04:05:31;;;;;;;10.68;9.50;;;23.60;90.60;;;;;;5107286;28;20486;-39
2021/06/17 04:07:59;;;;;;;11.23;10.13;;;23.60;90.60;;;;;;5106358;28;20027;-38
2021/06/17 04:10:26;;;;;;;11.32;10.15;;;23.60;90.70;;;;;;5106834;28;20103;-39
2021/06/17 04:12:54;;;;;;;10.98;9.80;;;23.60;90.70;;;;;;5106711;28;20055;-37
2021/06/17 04:15:20;;;;;;;11.18;10.00;;;23.60;90.80;;;;;;5108858;28;20031;-39
2021/06/17 04:17:53;;;;;;;11.38;10.25;;;23.60;90.80;;;;;;5110174;28;20027;-39
2021/06/17 04:20:24;;;;;;;10.70;9.65;;;23.60;90.90;;;;;;5111573;28;20386;-39
2021/06/17 04:22:52;;;;;;;10.60;9.60;;;23.60;91.00;;;;;;5110549;28;20072;-40
2021/06/17 04:25:20;;;;;;;12.57;10.93;;;23.60;91.00;;;;;;5110419;28;20413;-39
2021/06/17 04:27:48;;;;;;;12.32;10.73;;;23.60;91.10;;;;;;5110426;28;20047;-38
2021/06/17 04:30:16;;;;;;;13.63;11.43;;;23.50;91.10;;;;;;5109735;28;20165;-36
2021/06/17 04:32:45;;;;;;;11.10;9.98;;;23.50;91.10;;;;;;5110476;28;20562;-41
2021/06/17 04:35:13;;;;;;;11.73;10.63;;;23.50;91.40;;;;;;5110606;28;20040;-39
2021/06/17 04:37:39;;;;;;;11.95;10.80;;;23.50;91.20;;;;;;5110253;28;20031;-38
2021/06/17 04:40:07;;;;;;;11.95;10.85;;;23.50;91.20;;;;;;5110520;28;20027;-39
2021/06/17 04:42:33;;;;;;;11.63;10.43;;;23.50;91.30;;;;;;5110631;28;20124;-39
2021/06/17 04:44:59;;;;;;;12.40;11.10;;;23.50;91.30;;;;;;5109126;28;20076;-39
2021/06/17 04:47:24;;;;;;;11.38;10.18;;;23.50;91.30;;;;;;5110611;28;20023;-40
2021/06/17 04:49:51;;;;;;;13.05;11.00;;;23.50;91.30;;;;;;5109887;28;20457;-39
2021/06/17 04:52:29;;;;;;;12.48;11.27;;;23.50;91.40;;;;;;5109509;28;20042;-42
2021/06/17 04:54:55;;;;;;;12.13;10.90;;;23.50;91.40;;;;;;5109548;28;20032;-40
2021/06/17 04:57:20;;;;;;;10.98;9.93;;;23.50;91.40;;;;;;5110316;28;20161;-42
2021/06/17 04:59:46;;;;;;;11.98;10.77;;;23.50;91.40;;;;;;5108725;28;20096;-37
2021/06/17 05:02:11;;;;;;;8.95;8.10;;;23.60;91.50;;;;;;5109388;28;20026;-45
2021/06/17 05:04:38;;;;;;;11.48;10.35;;;23.60;91.70;;;;;;5110301;28;20024;-42
2021/06/17 05:07:22;;;;;;;10.73;9.40;;;23.60;91.50;;;;;;5109668;28;20469;-41
2021/06/17 05:12:32;;;;;;;10.57;9.68;;;23.70;91.40;;;;;;5109977;28;20111;-40
2021/06/17 05:14:58;;;;;;;10.43;9.43;;;23.80;91.30;;;;;;5109343;28;20142;-41
2021/06/17 05:17:23;;;;;;;8.23;7.53;;;23.80;91.30;;;;;;5110211;28;20486;-39
2021/06/17 05:19:49;;;;;;;10.50;9.43;;;23.90;91.30;;;;;;5109052;28;20027;-39
2021/06/17 05:22:15;;;;;;;11.23;10.15;;;23.90;91.20;;;;;;5109004;28;20023;-38
2021/06/17 05:24:41;;;;;;;10.95;9.40;;;23.90;91.30;;;;;;5108916;28;20124;-39
2021/06/17 05:27:07;;;;;;;10.32;9.32;;;24.00;91.30;;;;;;5108404;28;20027;-38
2021/06/17 05:29:35;;;;;;;10.40;9.40;;;24.00;91.20;;;;;;5109018;28;20055;-39
2021/06/17 05:32:01;;;;;;;10.32;9.38;;;24.00;91.20;;;;;;5108510;27;20031;-39
2021/06/17 05:34:32;;;;;;;10.07;9.10;;;24.00;91.20;;;;;;5108729;28;20103;-38
2021/06/17 05:36:58;;;;;;;11.45;9.98;;;24.10;91.20;;;;;;5106553;28;20619;-40
2021/06/17 05:39:24;;;;;;;9.77;8.88;;;24.10;91.20;;;;;;5109258;28;20020;-38
2021/06/17 05:41:49;;;;;;;12.25;10.65;;;24.10;91.20;;;;;;5105035;27;20032;-39
2021/06/17 05:44:15;;;;;;;11.45;9.95;;;24.10;91.20;;;;;;5107824;28;20320;-39
2021/06/17 05:46:41;;;;;;;11.32;9.90;;;24.10;91.20;;;;;;5107980;28;20039;-39
2021/06/17 05:49:07;;;;;;;10.90;9.75;;;24.10;91.20;;;;;;5107977;28;20351;-38
2021/06/17 05:51:33;;;;;;;10.38;9.32;;;24.10;91.20;;;;;;5107816;27;20034;-41
2021/06/17 05:54:00;;;;;;;8.93;8.07;;;24.10;91.20;;;;;;5107384;28;20085;-40
2021/06/17 05:56:26;;;;;;;7.50;6.80;;;24.10;91.20;;;;;;5108703;28;20024;-40
2021/06/17 05:58:56;;;;;;;8.20;7.40;;;24.20;91.20;;;;;;5108173;28;20110;-40
2021/06/17 06:01:28;;;;;;;9.98;7.35;;;24.20;91.20;;;;;;5107671;28;20031;-39
2021/06/17 06:03:53;;;;;;;9.50;8.07;;;24.30;91.20;;;;;;5107958;28;20065;-39
2021/06/17 06:06:19;;;;;;;7.65;6.95;;;24.30;91.20;;;;;;5108075;28;20012;-39
2021/06/17 06:08:46;;;;;;;9.85;7.72;;;24.30;91.20;;;;;;5107684;28;20034;-47
2021/06/17 06:11:11;;;;;;;7.28;6.53;;;24.40;91.10;;;;;;5107476;28;20015;-41
2021/06/17 06:13:37;;;;;;;7.70;6.63;;;24.40;91.10;;;;;;5107782;28;20030;-37
2021/06/17 06:16:03;;;;;;;7.72;6.95;;;24.50;91.10;;;;;;5107073;28;20039;-35
2021/06/17 06:18:30;;;;;;;7.85;7.05;;;24.50;91.10;;;;;;5107792;28;20184;-40
2021/06/17 06:20:58;;;;;;;6.93;6.28;;;24.60;91.20;;;;;;5108781;27;20027;-39
2021/06/17 06:23:26;;;;;;;8.10;6.32;;;24.60;91.10;;;;;;5107375;28;20031;-40
2021/06/17 06:25:52;;;;;;;8.65;6.53;;;24.60;91.10;;;;;;5107659;28;20457;-40
2021/06/17 06:28:22;;;;;;;7.30;6.60;;;24.70;91.10;;;;;;5107810;28;20067;-39
2021/06/17 06:30:50;;;;;;;7.47;6.35;;;24.70;91.10;;;;;;5107948;28;20390;-38
2021/06/17 06:33:19;;;;;;;7.30;6.60;;;24.80;91.10;;;;;;5107629;28;20032;-40
2021/06/17 06:35:46;;;;;;;8.80;5.97;;;24.90;91.10;;;;;;5108048;28;20094;-38
2021/06/17 06:38:11;;;;;;;7.03;5.47;;;24.90;91.00;;;;;;5106841;28;20051;-40
2021/06/17 06:40:40;;;;;;;6.95;6.03;;;24.90;90.90;;;;;;5108304;28;20451;-40
2021/06/17 06:43:11;;;;;;;6.75;6.07;;;25.00;90.90;;;;;;5107108;28;20028;-37
2021/06/17 06:45:36;;;;;;;7.50;6.65;;;25.00;90.80;;;;;;5108445;28;20375;-42
2021/06/17 06:48:02;;;;;;;6.25;5.65;;;25.10;90.80;;;;;;5107552;28;20015;-39
2021/06/17 06:50:28;;;;;;;6.22;5.63;;;25.20;90.90;;;;;;5107593;28;20908;-39
2021/06/17 06:52:54;;;;;;;7.43;6.25;;;25.30;90.80;;;;;;5108061;28;20034;-39
2021/06/17 06:55:23;;;;;;;7.13;5.80;;;25.40;90.70;;;;;;5108376;28;20080;-39
2021/06/17 06:57:50;;;;;;;5.65;5.15;;;25.60;90.60;;;;;;5107204;28;20073;-41
2021/06/17 07:00:24;;;;;;;8.15;5.43;;;25.80;90.40;;;;;;5094832;28;20137;-28
2021/06/17 07:02:50;;;;;;;6.80;5.20;;;26.00;90.10;;;;;;5102914;28;20351;-29
2021/06/17 07:05:16;;;;;;;5.28;4.72;;;26.20;89.90;;;;;;5093449;28;20056;-29
2021/06/17 07:07:41;;;;;;;5.53;4.70;;;26.40;89.60;;;;;;5104776;28;20030;-28
2021/06/17 07:10:08;;;;;;;6.63;5.07;;;26.60;89.30;;;;;;5092952;28;20115;-29
2021/06/17 07:12:34;;;;;;;7.88;5.80;;;26.70;89.00;;;;;;5104840;28;20023;-27
2021/06/17 07:15:06;;;;;;;6.70;4.72;;;26.80;88.60;;;;;;5091091;28;20101;-28
2021/06/17 07:17:32;;;;;;;5.80;5.00;;;26.90;88.70;;;;;;5105379;28;20451;-28
2021/06/17 07:19:57;;;;;;;4.63;4.22;;;26.90;88.50;;;;;;5091196;28;20044;-29
2021/06/17 07:22:24;;;;;;;4.55;4.15;;;26.90;88.30;;;;;;5105488;28;20020;-29
2021/06/17 07:24:53;;;;;;;4.78;4.18;;;27.00;88.10;;;;;;5094470;28;20024;-29
2021/06/17 07:27:18;;;;;;;5.28;4.10;;;27.00;87.80;;;;;;5102143;28;20016;-28
2021/06/17 07:29:44;;;;;;;5.75;4.22;;;27.10;87.40;;;;;;5095932;28;20085;-28
2021/06/17 07:32:09;;;;;;;4.35;4.00;;;27.20;87.30;;;;;;5100337;28;20027;-28
2021/06/17 07:34:36;;;;;;;5.30;3.83;;;27.20;87.10;;;;;;5098636;28;20378;-28
2021/06/17 07:37:01;;;;;;;4.20;3.90;;;27.20;87.00;;;;;;5096951;28;20016;-28
2021/06/17 07:39:27;;;;;;;3.47;3.17;;;27.20;87.20;;;;;;5101188;28;20051;-29
2021/06/17 07:41:53;;;;;;;4.85;4.05;;;27.20;86.90;;;;;;5093185;28;20039;-28
2021/06/17 07:44:18;;;;;;;5.25;4.30;;;27.20;86.00;;;;;;5102621;28;20078;-29
2021/06/17 07:46:44;;;;;;;5.18;4.68;;;27.30;85.50;;;;;;5092566;28;20148;-29
2021/06/17 07:49:10;;;;;;;4.60;4.20;;;27.30;85.40;;;;;;5102495;28;20019;-29
2021/06/17 07:51:37;;;;;;;4.72;4.32;;;27.30;85.30;;;;;;5091255;28;20020;-29
2021/06/17 07:54:03;;;;;;;4.43;3.70;;;27.30;85.00;;;;;;5079803;28;20496;-29
2021/06/17 07:56:29;;;;;;;3.85;3.45;;;27.20;84.90;;;;;;5088511;28;20032;-28
2021/06/17 07:58:55;;;;;;;4.07;3.42;;;27.20;85.00;;;;;;5082780;28;20040;-28
2021/06/17 08:01:27;;;;;;;6.05;3.72;;;27.20;84.90;;;;;;5094254;28;20031;-27
2021/06/17 08:03:53;;;;;;;5.28;4.10;;;27.10;84.80;;;;;;5083402;28;20173;-27
2021/06/17 08:06:19;;;;;;;5.07;3.90;;;27.10;83.90;;;;;;5094910;28;20020;-27
2021/06/17 08:08:44;;;;;;;4.20;3.80;;;27.20;82.70;;;;;;5084747;28;20482;-28
2021/06/17 08:11:11;;;;;;;7.15;3.97;;;27.20;82.20;;;;;;5081414;28;20028;-28
2021/06/17 08:13:37;;;;;;;6.78;4.22;;;27.30;82.30;;;;;;5073962;28;20031;-29
2021/06/17 08:16:02;;;;;;;6.80;4.55;;;27.30;81.60;;;;;;5068170;28;20024;-28
2021/06/17 08:18:28;;;;;;;6.00;4.30;;;27.40;81.20;;;;;;5087566;28;20486;-29
2021/06/17 08:20:55;;;;;;;5.45;3.97;;;27.40;80.90;;;;;;5086523;28;20047;-29
2021/06/17 08:23:21;;;;;;;3.88;3.53;;;27.40;81.00;;;;;;5074394;28;20021;-28
2021/06/17 08:25:50;;;;;;;6.07;4.25;;;27.50;80.60;;;;;;5087680;28;20107;-29
2021/06/17 08:28:16;;;;;;;5.53;4.43;;;27.50;80.60;;;;;;5078224;28;20035;-28
2021/06/17 08:30:42;;;;;;;8.13;4.10;;;27.50;80.30;;;;;;5088006;28;20482;-29
2021/06/17 08:33:11;;;;;;;8.70;4.13;;;27.60;80.10;;;;;;5078405;28;20032;-28
2021/06/17 08:35:36;;;;;;;4.00;3.70;;;27.60;80.20;;;;;;5089149;28;20021;-28
2021/06/17 08:38:02;;;;;;;5.20;4.28;;;27.70;79.90;;;;;;5076596;28;20027;-28
2021/06/17 08:40:30;;;;;;;6.00;4.03;;;27.70;79.30;;;;;;5089549;28;20134;-28
2021/06/17 08:42:57;;;;;;;10.05;5.47;;;27.80;78.90;;;;;;5076164;28;20470;-28
2021/06/17 08:45:23;;;;;;;4.78;3.80;;;27.80;79.20;;;;;;5089885;28;20032;-28
2021/06/17 08:47:49;;;;;;;6.15;4.13;;;27.80;79.20;;;;;;5077233;28;20337;-28
2021/06/17 08:50:15;;;;;;;6.72;3.72;;;27.80;78.90;;;;;;5088635;28;20359;-29
2021/06/17 08:52:45;;;;;;;3.95;3.50;;;27.80;78.80;;;;;;5079414;28;20060;-27
2021/06/17 08:55:28;;;;;;;4.05;3.30;;;27.80;78.10;;;;;;5086724;28;20063;-28
2021/06/17 08:57:56;;;;;;;4.07;3.25;;;27.90;78.00;;;;;;5072532;28;20047;-28
2021/06/17 09:00:21;;;;;;;3.97;3.50;;;27.90;78.00;;;;;;5071224;28;20044;-28
2021/06/17 09:02:58;;;;;;;3.85;3.00;;;27.90;78.00;;;;;;5076573;28;20181;-28
2021/06/17 09:05:25;;;;;;;4.30;3.00;;;27.90;78.10;;;;;;5071577;28;20131;-28
2021/06/17 09:07:52;;;;;;;3.13;2.90;;;27.90;78.10;;;;;;5075413;28;20012;-29
2021/06/17 09:10:18;;;;;;;3.30;2.80;;;27.90;78.10;;;;;;5075488;28;20124;-29
2021/06/17 09:12:47;;;;;;;4.78;3.20;;;27.80;78.20;;;;;;5072759;28;20024;-29
2021/06/17 09:15:13;;;;;;;3.78;2.92;;;27.90;78.30;;;;;;5077026;28;20123;-29
2021/06/17 09:17:39;;;;;;;3.22;2.88;;;27.80;77.80;;;;;;5070977;28;20055;-28
2021/06/17 09:20:08;;;;;;;3.08;2.80;;;27.80;77.90;;;;;;5078420;28;20488;-28
2021/06/17 09:22:35;;;;;;;3.33;2.80;;;27.80;78.20;;;;;;5068994;28;20117;-29
2021/06/17 09:25:02;;;;;;;2.58;2.38;;;27.80;78.60;;;;;;5079111;28;20032;-29
2021/06/17 09:27:38;;;;;;;3.63;3.20;;;27.80;78.70;;;;;;5060471;28;20035;-28
2021/06/17 09:30:10;;;;;;;3.30;3.00;;;27.80;78.40;;;;;;5076804;28;20016;-29
2021/06/17 09:32:36;;;;;;;3.75;2.85;;;27.80;78.40;;;;;;5087290;28;20522;-29
2021/06/17 09:35:25;;;;;;;3.88;3.13;;;27.90;78.50;;;;;;5076171;28;20020;-29
2021/06/17 09:38:00;;;;;;;3.83;2.95;;;27.90;78.50;;;;;;5086468;28;20047;-28
2021/06/17 09:40:39;;;;;;;3.10;2.80;;;27.90;78.50;;;;;;5076258;28;20035;-28
2021/06/17 09:43:16;;;;;;;4.05;2.70;;;27.90;78.50;;;;;;5085868;28;20021;-27
2021/06/17 09:45:54;;;;;;;6.03;2.80;;;27.90;78.30;;;;;;5076347;28;20101;-28
2021/06/17 09:48:46;;;;;;;3.63;2.65;;;27.90;78.20;;;;;;5086667;28;20024;-29
2021/06/17 09:51:22;;;;;;;3.15;2.85;;;28.00;78.30;;;;;;5068975;28;20020;-29
2021/06/17 09:53:48;;;;;;;3.10;2.60;;;28.10;77.80;;;;;;5085695;28;20016;-28
2021/06/17 09:56:15;;;;;;;3.42;3.13;;;28.20;77.90;;;;;;5070784;28;20112;-28
2021/06/17 09:58:45;;;;;;;4.90;3.17;;;28.30;77.90;;;;;;5068611;28;20564;-29
2021/06/17 10:01:16;;;;;;;3.20;2.90;;;28.40;77.80;;;;;;5080614;28;20020;-29
2021/06/17 10:03:58;;;;;;;5.27;3.10;;;28.40;77.50;;;;;;5065218;28;20029;-29
2021/06/17 10:06:24;;;;;;;4.55;3.22;;;28.60;77.60;;;;;;5071114;28;20040;-29
2021/06/17 10:08:50;;;;;;;3.65;3.10;;;28.60;77.60;;;;;;5068562;28;20085;-29
2021/06/17 10:11:16;;;;;;;3.65;3.35;;;28.60;77.80;;;;;;5078407;28;20022;-29
2021/06/17 10:13:42;;;;;;;3.38;3.15;;;28.70;78.00;;;;;;5067866;28;20472;-29
2021/06/17 10:16:07;;;;;;;5.50;3.40;;;28.70;78.00;;;;;;5079417;28;20123;-29
2021/06/17 10:18:35;;;;;;;3.20;2.90;;;28.80;77.70;;;;;;5067827;28;20028;-29
2021/06/17 10:21:01;;;;;;;4.80;3.22;;;28.90;77.30;;;;;;5079620;28;20063;-28
2021/06/17 10:23:27;;;;;;;3.20;2.92;;;29.00;76.90;;;;;;5067785;28;20055;-29
2021/06/17 10:25:52;;;;;;;5.40;3.00;;;29.00;76.80;;;;;;5074378;28;20039;-28
2021/06/17 10:28:38;;;;;;;5.63;3.10;;;29.10;76.70;;;;;;5068483;28;20025;-29
2021/06/17 10:31:03;;;;;;;4.18;3.40;;;29.20;76.50;;;;;;5077035;28;20024;-29
2021/06/17 10:33:32;;;;;;;4.28;3.33;;;29.20;76.40;;;;;;5069524;28;20435;-29
2021/06/17 10:36:37;;;;;;;4.95;3.10;;;29.30;76.50;;;;;;5070847;28;20108;-29
2021/06/17 10:39:09;;;;;;;3.53;3.03;;;29.40;76.50;;;;;;5016676;28;20049;-29
2021/06/17 10:41:50;;;;;;;6.95;3.60;;;29.50;76.30;;;;;;5079579;28;20028;-29
2021/06/17 10:44:36;;;;;;;3.47;3.17;;;29.60;76.00;;;;;;5047238;28;20025;-29
2021/06/17 10:47:02;;;;;;;4.20;3.72;;;29.70;75.80;;;;;;5077662;28;20035;-29
2021/06/17 10:49:49;;;;;;;4.82;3.42;;;29.80;75.80;;;;;;5066949;28;20142;-29
2021/06/17 10:52:31;;;;;;;4.10;3.33;;;29.80;75.80;;;;;;5079354;28;20035;-29
2021/06/17 10:55:01;;;;;;;3.67;3.30;;;29.90;75.80;;;;;;5066640;28;20051;-29
2021/06/17 10:57:45;;;;;;;4.43;3.40;;;29.90;75.40;;;;;;5079210;28;20029;-29
2021/06/17 11:00:26;;;;;;;3.40;2.90;;;30.00;75.20;;;;;;5066324;28;20102;-29
2021/06/17 11:03:18;;;;;;;3.50;3.20;;;30.10;75.10;;;;;;5074234;28;20028;-28
2021/06/17 11:05:45;;;;;;;4.55;4.15;;;30.30;74.90;;;;;;5085403;28;20632;-29
2021/06/17 11:08:19;;;;;;;4.45;3.60;;;30.50;74.60;;;;;;5074179;28;20492;-28
2021/06/17 11:11:12;;;;;;;4.35;3.80;;;30.70;74.30;;;;;;5066989;28;20024;-28
2021/06/17 11:13:42;;;;;;;4.55;4.15;;;30.80;73.50;;;;;;5068879;28;20396;-28
2021/06/17 11:16:14;;;;;;;4.10;3.80;;;31.00;72.10;;;;;;5058878;28;20032;-28
2021/06/17 11:18:44;;;;;;;4.43;3.90;;;31.10;71.90;;;;;;5059838;28;20021;-28
2021/06/17 11:21:21;;;;;;;5.90;4.40;;;31.10;71.30;;;;;;5057814;28;20528;-30
2021/06/17 11:24:00;;;;;;;4.10;3.70;;;31.20;71.40;;;;;;5075445;28;20021;-28
2021/06/17 11:26:40;;;;;;;7.13;3.90;;;31.20;71.00;;;;;;5067568;28;20036;-28
2021/06/17 11:29:07;;;;;;;5.93;4.18;;;31.40;70.90;;;;;;5077717;28;20024;-27
2021/06/17 11:31:38;;;;;;;4.10;3.70;;;31.50;71.20;;;;;;5067632;28;20036;-28
2021/06/17 11:34:04;;;;;;;6.38;4.43;;;31.60;71.20;;;;;;5074595;28;20021;-28
2021/06/17 11:36:33;;;;;;;4.45;3.80;;;31.60;70.50;;;;;;5067433;28;20033;-28
2021/06/17 11:39:02;;;;;;;3.88;3.28;;;31.70;70.10;;;;;;5076428;28;20028;-29
2021/06/17 11:41:32;;;;;;;7.28;4.45;;;31.70;69.30;;;;;;5066886;28;20028;-30
2021/06/17 11:44:00;;;;;;;5.90;3.88;;;31.70;68.10;;;;;;5078520;28;20199;-29
2021/06/17 11:46:32;;;;;;;5.03;3.80;;;31.80;68.50;;;;;;5069235;28;20420;-29
2021/06/17 11:49:06;;;;;;;3.95;3.58;;;31.90;68.50;;;;;;5082013;28;20032;-29
2021/06/17 11:51:46;;;;;;;4.22;3.63;;;31.90;68.60;;;;;;5070630;28;20024;-29
2021/06/17 11:54:23;;;;;;;4.88;3.97;;;31.90;67.70;;;;;;5082465;28;20038;-29
2021/06/17 11:56:50;;;;;;;4.50;3.90;;;31.90;67.40;;;;;;5080119;28;20021;-29
2021/06/17 11:59:31;;;;;;;3.78;3.38;;;31.90;67.70;;;;;;5076730;28;20175;-29
2021/06/17 12:02:21;;;;;;;5.57;3.53;;;31.90;68.20;;;;;;5057468;28;20093;-29
2021/06/17 12:05:04;;;;;;;4.00;3.63;;;32.00;68.10;;;;;;5050701;28;20129;-29
2021/06/17 12:07:34;;;;;;;4.30;3.90;;;32.10;67.60;;;;;;5049649;28;20112;-28
2021/06/17 12:10:10;;;;;;;4.50;4.00;;;32.10;67.40;;;;;;5081700;28;20106;-29
2021/06/17 12:12:44;;;;;;;4.15;3.35;;;32.30;66.70;;;;;;5070167;28;20107;-29
2021/06/17 12:15:10;;;;;;;6.00;3.70;;;32.40;65.40;;;;;;5081544;28;20477;-29
2021/06/17 12:17:52;;;;;;;5.47;3.70;;;32.50;65.00;;;;;;5060659;28;20055;-29
2021/06/17 12:20:23;;;;;;;4.00;3.60;;;32.60;64.20;;;;;;5081477;28;20044;-29
2021/06/17 12:23:20;;;;;;;6.03;3.85;;;32.70;64.40;;;;;;5069499;28;20036;-29
2021/06/17 12:26:00;;;;;;;4.32;3.58;;;32.90;62.20;;;;;;5076974;28;20015;-30
2021/06/17 12:28:27;;;;;;;10.18;4.00;;;33.10;62.90;;;;;;5069846;28;20021;-29
2021/06/17 12:30:58;;;;;;;5.90;3.25;;;33.30;62.20;;;;;;5081230;28;20149;-30
2021/06/17 12:33:33;;;;;;;5.03;3.00;;;33.30;61.00;;;;;;5069424;28;20025;-29
2021/06/17 12:36:02;;;;;;;4.93;2.65;;;33.20;60.60;;;;;;5075490;28;20426;-28
2021/06/17 12:38:30;;;;;;;5.10;2.40;;;33.00;59.90;;;;;;5089908;28;20036;-29
2021/06/17 12:41:16;;;;;;;3.85;2.42;;;32.90;59.30;;;;;;5082868;28;20024;-30
2021/06/17 12:43:47;;;;;;;2.85;2.20;;;32.70;59.60;;;;;;5069056;28;20032;-29
2021/06/17 12:46:21;;;;;;;3.67;2.83;;;32.60;59.30;;;;;;5081132;28;20028;-29
2021/06/17 12:54:31;;;;;;;2.60;2.40;;;32.70;61.40;;;;;;5070785;28;20055;-30
2021/06/17 12:57:01;;;;;;;3.28;2.58;;;32.60;61.10;;;;;;5073286;28;20109;-29
2021/06/17 12:59:51;;;;;;;3.20;2.40;;;32.60;60.70;;;;;;5068873;28;20076;-29
2021/06/17 13:02:22;;;;;;;3.67;2.53;;;32.60;60.20;;;;;;5077937;28;20480;-29
2021/06/17 13:05:11;;;;;;;5.07;2.30;;;32.60;60.70;;;;;;5068233;28;20036;-29